Preview of NWS' New Version of Forecast
This preview is not operational and should not be used for support decisions.

Terminal Aerodrome Forecast (TAF)

Issued by National Weather Service (NWS)

                            
000
FTUS42 KKEY 211139
TAFEYW
TAF
KEYW 211139Z 2112/2212 01011G18KT P6SM SCT020
      TEMPO 2112/2114 BKN020
     FM211400 03011KT P6SM FEW025
     FM220100 04010KT P6SM FEW035
     FM220800 06011KT P6SM BKN035=